メインページ
METAR-TAF:

METAR-TAF

空港 :

デンバー, コロラド州, アメリカ合衆国

デンバー国際空港

緯度: 39-49-58N, 経度: 104-39-27W, 海抜: 1655m

現時点の気象観測

当レポートは16分前の11:53(UTC)に作成
北西の風 26kt、最大32ktの突風を伴う
気温 2°C
湿度 93%
気圧 1014 hPa
視程: 8.0km
高度700ftの曇り
小雪, 靄

METAR: KDEN 241153Z 32026G32KT 5SM -SN BR OVC007 02/01 A2993 RMK AO2 PK WND 35035/1100 SLP092 P0003 60047 70047 T00170011 10050 20006 53020 $

時間: 06:09 (12:09 UTC)

予報

当レポートは49分前の11:20(UTC)に作成
予報は24日の 12時(UTC)から 25日の 18時(UTC)まで有効
北/北西の風 22kt、最大34ktの突風を伴う
視程: 6.4km
高度500ftの曇り
小雪, 靄
24日の 1300時(UTC)から
北/北西の風 25kt、最大35ktの突風を伴う
視程: 8.0km
高度400ftの雲は散在している
高度800ftの曇り
小雪, 靄
24日の 1500時(UTC)から
の風 22kt、最大35ktの突風を伴う
視程: 10km
高度1500ftの曇り
近辺でにわか雨
24日の 1800時(UTC)から
北/北東の風 12kt
視程: 10km
高度2500ftの雲は散在している
高度6000ftの千切れ雲あり
24日の 2100時(UTC)から
の風 8kt
視程: 10km
高度4000ftの雲はほとんどない
高度10000ftの雲は散在している
25日の 0200時(UTC)から
の風 7kt
視程: 10km
高度10000ftの雲はほとんどない
25日の 0500時(UTC)から
南/南西の風 8kt
視程: 10km
高度25000ftの雲はほとんどない
25日の 1500時(UTC)から
南/南東の風 8kt
視程: 10km
高度25000ftの雲は散在している

TAF: KDEN 241120Z 2412/2518 34022G34KT 4SM -SN BR OVC005 FM241300 34025G35KT 5SM -SN BR SCT004 OVC008 FM241500 35022G35KT P6SM VCSH OVC015 FM241800 03012KT P6SM SCT025 BKN060 FM242100 09008KT P6SM FEW040 SCT100 FM250200 18007KT P6SM FEW100 FM250500 20008KT P6SM FEW250 FM251500 15008KT P6SM SCT250

4,000以上の空港の気象観測と天気予報(METAR報とTAF報)

利用可能な観測所は地図上に黄色い丸と赤い丸で示す。

丸の上にカーソルを重ねると観測所名を参照できる。

次にクリックすると気象観測と天気予報を参照できる。

マップの切り替え:黒色「×」印の緑ボタンをクリックして拡大、「-」印の緑ボタンをクリックして縮小、緑色の三角印をクリックして隣りの地図に切り替え


METAR-TAF: